sensor_id;sensor_type;location;lat;lon;timestamp;P1;durP1;ratioP1;P2;durP2;ratioP2
62915;SDS011;49010;51.230;-2.306;2023-02-05T00:00:20;18.83;;;6.38;;
62915;SDS011;49010;51.230;-2.306;2023-02-05T00:04:02;15.50;;;6.75;;
62915;SDS011;49010;51.230;-2.306;2023-02-05T00:07:44;14.98;;;7.15;;
62915;SDS011;49010;51.230;-2.306;2023-02-05T00:11:26;13.35;;;6.88;;
62915;SDS011;49010;51.230;-2.306;2023-02-05T00:15:08;16.17;;;6.70;;
62915;SDS011;49010;51.230;-2.306;2023-02-05T00:18:50;14.00;;;5.85;;
62915;SDS011;49010;51.230;-2.306;2023-02-05T00:22:32;15.25;;;6.95;;
62915;SDS011;49010;51.230;-2.306;2023-02-05T00:26:14;18.05;;;7.13;;
62915;SDS011;49010;51.230;-2.306;2023-02-05T00:29:57;15.15;;;6.88;;
62915;SDS011;49010;51.230;-2.306;2023-02-05T00:33:38;13.35;;;6.22;;
62915;SDS011;49010;51.230;-2.306;2023-02-05T00:37:20;12.82;;;6.32;;
62915;SDS011;49010;51.230;-2.306;2023-02-05T00:41:02;11.00;;;5.63;;
62915;SDS011;49010;51.230;-2.306;2023-02-05T00:44:44;16.77;;;6.53;;
62915;SDS011;49010;51.230;-2.306;2023-02-05T00:48:26;15.77;;;6.18;;
62915;SDS011;49010;51.230;-2.306;2023-02-05T00:52:08;23.65;;;6.82;;
62915;SDS011;49010;51.230;-2.306;2023-02-05T00:55:50;16.92;;;6.43;;
62915;SDS011;49010;51.230;-2.306;2023-02-05T00:59:32;17.73;;;6.70;;
62915;SDS011;49010;51.230;-2.306;2023-02-05T01:03:14;14.25;;;7.20;;
62915;SDS011;49010;51.230;-2.306;2023-02-05T01:06:56;16.40;;;6.85;;
62915;SDS011;49010;51.230;-2.306;2023-02-05T01:10:42;9.77;;;5.18;;
62915;SDS011;49010;51.230;-2.306;2023-02-05T01:14:24;6.80;;;2.50;;
62915;SDS011;49010;51.230;-2.306;2023-02-05T01:18:06;12.93;;;2.90;;
62915;SDS011;49010;51.230;-2.306;2023-02-05T01:21:48;6.40;;;1.77;;
62915;SDS011;49010;51.230;-2.306;2023-02-05T01:25:30;7.10;;;2.00;;
62915;SDS011;49010;51.230;-2.306;2023-02-05T01:29:13;7.70;;;1.80;;
62915;SDS011;49010;51.230;-2.306;2023-02-05T01:32:55;10.77;;;2.33;;
62915;SDS011;49010;51.230;-2.306;2023-02-05T01:36:36;9.00;;;1.77;;
62915;SDS011;49010;51.230;-2.306;2023-02-05T01:40:18;7.43;;;1.50;;
62915;SDS011;49010;51.230;-2.306;2023-02-05T01:47:52;8.95;;;2.05;;
62915;SDS011;49010;51.230;-2.306;2023-02-05T01:51:41;6.32;;;1.25;;
62915;SDS011;49010;51.230;-2.306;2023-02-05T01:55:25;6.75;;;2.42;;
62915;SDS011;49010;51.230;-2.306;2023-02-05T01:59:10;7.55;;;2.40;;
62915;SDS011;49010;51.230;-2.306;2023-02-05T02:02:55;11.48;;;2.88;;
62915;SDS011;49010;51.230;-2.306;2023-02-05T02:06:39;6.63;;;2.15;;
62915;SDS011;49010;51.230;-2.306;2023-02-05T02:10:21;14.55;;;3.05;;
62915;SDS011;49010;51.230;-2.306;2023-02-05T02:14:03;9.55;;;2.13;;
62915;SDS011;49010;51.230;-2.306;2023-02-05T02:17:52;17.52;;;3.72;;
62915;SDS011;49010;51.230;-2.306;2023-02-05T02:29:56;9.48;;;2.72;;
62915;SDS011;49010;51.230;-2.306;2023-02-05T02:33:44;10.32;;;2.88;;
62915;SDS011;49010;51.230;-2.306;2023-02-05T02:37:33;15.82;;;2.08;;
62915;SDS011;49010;51.230;-2.306;2023-02-05T02:41:29;5.93;;;1.85;;
62915;SDS011;49010;51.230;-2.306;2023-02-05T02:45:15;6.90;;;1.60;;
62915;SDS011;49010;51.230;-2.306;2023-02-05T02:48:59;9.27;;;2.72;;
62915;SDS011;49010;51.230;-2.306;2023-02-05T02:52:45;10.57;;;2.28;;
62915;SDS011;49010;51.230;-2.306;2023-02-05T02:56:29;6.07;;;2.20;;
62915;SDS011;49010;51.230;-2.306;2023-02-05T03:00:21;6.72;;;1.85;;
62915;SDS011;49010;51.230;-2.306;2023-02-05T03:04:10;10.68;;;2.28;;
62915;SDS011;49010;51.230;-2.306;2023-02-05T03:07:58;8.77;;;2.25;;
62915;SDS011;49010;51.230;-2.306;2023-02-05T03:11:43;11.70;;;2.85;;
62915;SDS011;49010;51.230;-2.306;2023-02-05T03:15:25;12.75;;;2.13;;
62915;SDS011;49010;51.230;-2.306;2023-02-05T03:19:07;13.00;;;2.00;;
62915;SDS011;49010;51.230;-2.306;2023-02-05T03:22:49;6.88;;;1.83;;
62915;SDS011;49010;51.230;-2.306;2023-02-05T03:26:32;12.43;;;2.10;;
62915;SDS011;49010;51.230;-2.306;2023-02-05T03:30:22;9.00;;;2.65;;
62915;SDS011;49010;51.230;-2.306;2023-02-05T03:34:35;10.45;;;2.20;;
62915;SDS011;49010;51.230;-2.306;2023-02-05T03:46:19;8.88;;;2.22;;
62915;SDS011;49010;51.230;-2.306;2023-02-05T03:50:20;9.70;;;2.03;;
62915;SDS011;49010;51.230;-2.306;2023-02-05T03:54:12;10.85;;;2.25;;
62915;SDS011;49010;51.230;-2.306;2023-02-05T03:58:05;12.05;;;2.47;;
62915;SDS011;49010;51.230;-2.306;2023-02-05T04:01:48;11.77;;;2.72;;
62915;SDS011;49010;51.230;-2.306;2023-02-05T04:05:30;9.23;;;1.98;;
62915;SDS011;49010;51.230;-2.306;2023-02-05T04:09:13;11.95;;;2.63;;
62915;SDS011;49010;51.230;-2.306;2023-02-05T04:12:55;12.15;;;2.67;;
62915;SDS011;49010;51.230;-2.306;2023-02-05T04:16:37;11.70;;;2.80;;
62915;SDS011;49010;51.230;-2.306;2023-02-05T04:20:19;14.25;;;3.22;;
62915;SDS011;49010;51.230;-2.306;2023-02-05T04:24:01;8.98;;;2.72;;
62915;SDS011;49010;51.230;-2.306;2023-02-05T04:27:43;13.75;;;3.70;;
62915;SDS011;49010;51.230;-2.306;2023-02-05T04:31:25;9.00;;;3.05;;
62915;SDS011;49010;51.230;-2.306;2023-02-05T04:35:07;9.98;;;2.92;;
62915;SDS011;49010;51.230;-2.306;2023-02-05T04:38:49;9.02;;;2.42;;
62915;SDS011;49010;51.230;-2.306;2023-02-05T04:42:31;10.30;;;2.15;;
62915;SDS011;49010;51.230;-2.306;2023-02-05T04:46:12;12.32;;;3.08;;
62915;SDS011;49010;51.230;-2.306;2023-02-05T04:49:54;16.77;;;2.40;;
62915;SDS011;49010;51.230;-2.306;2023-02-05T04:53:36;15.63;;;2.00;;
62915;SDS011;49010;51.230;-2.306;2023-02-05T04:57:18;12.70;;;2.22;;
62915;SDS011;49010;51.230;-2.306;2023-02-05T05:01:00;10.90;;;2.92;;
62915;SDS011;49010;51.230;-2.306;2023-02-05T05:04:42;13.27;;;2.13;;
62915;SDS011;49010;51.230;-2.306;2023-02-05T05:08:24;11.80;;;2.58;;
62915;SDS011;49010;51.230;-2.306;2023-02-05T05:12:06;9.70;;;2.53;;
62915;SDS011;49010;51.230;-2.306;2023-02-05T05:15:52;13.80;;;3.35;;
62915;SDS011;49010;51.230;-2.306;2023-02-05T05:19:37;7.32;;;2.45;;
62915;SDS011;49010;51.230;-2.306;2023-02-05T05:23:19;14.45;;;2.45;;
62915;SDS011;49010;51.230;-2.306;2023-02-05T05:27:00;15.85;;;2.40;;
62915;SDS011;49010;51.230;-2.306;2023-02-05T05:30:43;14.52;;;2.22;;
62915;SDS011;49010;51.230;-2.306;2023-02-05T05:34:26;9.30;;;2.15;;
62915;SDS011;49010;51.230;-2.306;2023-02-05T05:38:08;10.30;;;2.58;;
62915;SDS011;49010;51.230;-2.306;2023-02-05T05:41:50;11.55;;;3.42;;
62915;SDS011;49010;51.230;-2.306;2023-02-05T05:45:51;7.72;;;2.08;;
62915;SDS011;49010;51.230;-2.306;2023-02-05T05:49:33;14.30;;;2.40;;
62915;SDS011;49010;51.230;-2.306;2023-02-05T05:53:15;12.13;;;2.35;;
62915;SDS011;49010;51.230;-2.306;2023-02-05T05:56:57;15.35;;;2.80;;
62915;SDS011;49010;51.230;-2.306;2023-02-05T06:00:39;6.57;;;2.22;;
62915;SDS011;49010;51.230;-2.306;2023-02-05T06:04:21;8.95;;;2.13;;
62915;SDS011;49010;51.230;-2.306;2023-02-05T06:08:03;10.85;;;2.00;;
62915;SDS011;49010;51.230;-2.306;2023-02-05T06:11:46;18.48;;;2.85;;
62915;SDS011;49010;51.230;-2.306;2023-02-05T06:15:28;11.15;;;2.20;;
62915;SDS011;49010;51.230;-2.306;2023-02-05T06:19:10;12.05;;;2.17;;
62915;SDS011;49010;51.230;-2.306;2023-02-05T06:22:52;11.63;;;3.53;;
62915;SDS011;49010;51.230;-2.306;2023-02-05T06:26:34;12.18;;;2.28;;
62915;SDS011;49010;51.230;-2.306;2023-02-05T06:30:15;6.45;;;1.77;;
62915;SDS011;49010;51.230;-2.306;2023-02-05T06:33:57;13.02;;;1.80;;
62915;SDS011;49010;51.230;-2.306;2023-02-05T06:37:41;9.25;;;1.85;;
62915;SDS011;49010;51.230;-2.306;2023-02-05T06:41:28;7.07;;;1.95;;
62915;SDS011;49010;51.230;-2.306;2023-02-05T06:45:09;12.80;;;3.53;;
62915;SDS011;49010;51.230;-2.306;2023-02-05T06:48:51;12.18;;;3.78;;
62915;SDS011;49010;51.230;-2.306;2023-02-05T06:52:33;11.20;;;2.90;;
62915;SDS011;49010;51.230;-2.306;2023-02-05T06:56:15;7.35;;;1.73;;
62915;SDS011;49010;51.230;-2.306;2023-02-05T06:59:59;20.80;;;2.85;;
62915;SDS011;49010;51.230;-2.306;2023-02-05T07:03:41;8.70;;;2.72;;
62915;SDS011;49010;51.230;-2.306;2023-02-05T07:07:23;7.88;;;2.55;;
62915;SDS011;49010;51.230;-2.306;2023-02-05T07:11:05;14.70;;;2.45;;
62915;SDS011;49010;51.230;-2.306;2023-02-05T07:14:47;8.13;;;2.63;;
62915;SDS011;49010;51.230;-2.306;2023-02-05T07:18:29;20.00;;;4.55;;
62915;SDS011;49010;51.230;-2.306;2023-02-05T07:22:12;12.30;;;3.30;;
62915;SDS011;49010;51.230;-2.306;2023-02-05T07:25:54;11.52;;;3.13;;
62915;SDS011;49010;51.230;-2.306;2023-02-05T07:29:36;7.72;;;2.67;;
62915;SDS011;49010;51.230;-2.306;2023-02-05T07:33:18;12.95;;;2.38;;
62915;SDS011;49010;51.230;-2.306;2023-02-05T07:37:00;13.93;;;2.72;;
62915;SDS011;49010;51.230;-2.306;2023-02-05T07:40:41;9.15;;;2.10;;
62915;SDS011;49010;51.230;-2.306;2023-02-05T07:44:23;6.18;;;1.73;;
62915;SDS011;49010;51.230;-2.306;2023-02-05T07:48:05;9.77;;;2.38;;
62915;SDS011;49010;51.230;-2.306;2023-02-05T07:51:47;10.75;;;2.38;;
62915;SDS011;49010;51.230;-2.306;2023-02-05T07:55:29;11.77;;;2.20;;
62915;SDS011;49010;51.230;-2.306;2023-02-05T07:59:11;19.88;;;2.88;;
62915;SDS011;49010;51.230;-2.306;2023-02-05T08:02:53;7.82;;;2.40;;
62915;SDS011;49010;51.230;-2.306;2023-02-05T08:06:34;9.77;;;2.80;;
62915;SDS011;49010;51.230;-2.306;2023-02-05T08:10:16;14.27;;;2.35;;
62915;SDS011;49010;51.230;-2.306;2023-02-05T08:13:59;7.20;;;1.60;;
62915;SDS011;49010;51.230;-2.306;2023-02-05T08:17:41;13.18;;;2.40;;
62915;SDS011;49010;51.230;-2.306;2023-02-05T08:21:23;11.52;;;2.00;;
62915;SDS011;49010;51.230;-2.306;2023-02-05T08:25:06;9.35;;;1.90;;
62915;SDS011;49010;51.230;-2.306;2023-02-05T08:28:50;9.32;;;2.15;;
62915;SDS011;49010;51.230;-2.306;2023-02-05T08:32:32;7.88;;;2.10;;
62915;SDS011;49010;51.230;-2.306;2023-02-05T08:36:14;10.45;;;2.65;;
62915;SDS011;49010;51.230;-2.306;2023-02-05T08:39:56;10.48;;;2.63;;
62915;SDS011;49010;51.230;-2.306;2023-02-05T08:43:42;11.88;;;2.42;;
62915;SDS011;49010;51.230;-2.306;2023-02-05T08:47:25;12.20;;;2.60;;
62915;SDS011;49010;51.230;-2.306;2023-02-05T08:51:08;9.10;;;2.45;;
62915;SDS011;49010;51.230;-2.306;2023-02-05T08:54:51;12.88;;;2.53;;
62915;SDS011;49010;51.230;-2.306;2023-02-05T08:58:33;14.50;;;3.70;;
62915;SDS011;49010;51.230;-2.306;2023-02-05T09:02:15;10.85;;;2.95;;
62915;SDS011;49010;51.230;-2.306;2023-02-05T09:05:58;11.63;;;3.58;;
62915;SDS011;49010;51.230;-2.306;2023-02-05T09:12:57;9.63;;;2.53;;
62915;SDS011;49010;51.230;-2.306;2023-02-05T09:16:39;17.17;;;2.90;;
62915;SDS011;49010;51.230;-2.306;2023-02-05T09:20:21;16.13;;;3.38;;
62915;SDS011;49010;51.230;-2.306;2023-02-05T09:24:03;13.13;;;4.25;;
62915;SDS011;49010;51.230;-2.306;2023-02-05T09:27:45;16.92;;;3.45;;
62915;SDS011;49010;51.230;-2.306;2023-02-05T09:31:28;13.13;;;4.18;;
62915;SDS011;49010;51.230;-2.306;2023-02-05T09:35:10;13.68;;;2.90;;
62915;SDS011;49010;51.230;-2.306;2023-02-05T09:38:52;17.40;;;3.78;;
62915;SDS011;49010;51.230;-2.306;2023-02-05T09:43:18;16.75;;;2.97;;
62915;SDS011;49010;51.230;-2.306;2023-02-05T09:47:06;9.73;;;2.25;;
62915;SDS011;49010;51.230;-2.306;2023-02-05T09:50:49;16.08;;;2.90;;
62915;SDS011;49010;51.230;-2.306;2023-02-05T09:54:32;14.40;;;2.90;;
62915;SDS011;49010;51.230;-2.306;2023-02-05T09:58:22;12.63;;;2.67;;
62915;SDS011;49010;51.230;-2.306;2023-02-05T10:14:16;12.02;;;3.58;;
62915;SDS011;49010;51.230;-2.306;2023-02-05T10:18:38;9.60;;;2.45;;
62915;SDS011;49010;51.230;-2.306;2023-02-05T10:22:17;10.40;;;3.17;;
62915;SDS011;49010;51.230;-2.306;2023-02-05T10:30:02;10.63;;;3.35;;
62915;SDS011;49010;51.230;-2.306;2023-02-05T10:34:09;9.70;;;2.80;;
62915;SDS011;49010;51.230;-2.306;2023-02-05T10:37:58;12.73;;;2.97;;
62915;SDS011;49010;51.230;-2.306;2023-02-05T10:41:42;9.68;;;3.22;;
62915;SDS011;49010;51.230;-2.306;2023-02-05T10:45:28;7.80;;;2.03;;
62915;SDS011;49010;51.230;-2.306;2023-02-05T10:49:12;8.05;;;2.15;;
62915;SDS011;49010;51.230;-2.306;2023-02-05T10:53:00;9.85;;;2.75;;
62915;SDS011;49010;51.230;-2.306;2023-02-05T10:56:42;9.63;;;2.60;;
62915;SDS011;49010;51.230;-2.306;2023-02-05T11:00:24;10.23;;;2.78;;
62915;SDS011;49010;51.230;-2.306;2023-02-05T11:04:08;8.50;;;2.80;;
62915;SDS011;49010;51.230;-2.306;2023-02-05T11:07:54;8.90;;;3.00;;
62915;SDS011;49010;51.230;-2.306;2023-02-05T11:11:36;8.10;;;2.40;;
62915;SDS011;49010;51.230;-2.306;2023-02-05T11:15:20;9.77;;;3.20;;
62915;SDS011;49010;51.230;-2.306;2023-02-05T11:19:12;12.97;;;2.50;;
62915;SDS011;49010;51.230;-2.306;2023-02-05T11:23:16;8.77;;;2.22;;
62915;SDS011;49010;51.230;-2.306;2023-02-05T11:31:26;9.60;;;2.90;;
62915;SDS011;49010;51.230;-2.306;2023-02-05T11:35:16;6.80;;;1.85;;
62915;SDS011;49010;51.230;-2.306;2023-02-05T11:39:13;9.32;;;2.78;;
62915;SDS011;49010;51.230;-2.306;2023-02-05T11:43:22;10.02;;;2.00;;
62915;SDS011;49010;51.230;-2.306;2023-02-05T11:47:07;6.32;;;2.40;;
62915;SDS011;49010;51.230;-2.306;2023-02-05T11:50:49;9.25;;;2.47;;
62915;SDS011;49010;51.230;-2.306;2023-02-05T11:54:31;8.45;;;2.53;;
62915;SDS011;49010;51.230;-2.306;2023-02-05T11:58:22;8.23;;;2.65;;
62915;SDS011;49010;51.230;-2.306;2023-02-05T12:06:15;10.50;;;2.80;;
62915;SDS011;49010;51.230;-2.306;2023-02-05T12:10:00;7.22;;;2.30;;
62915;SDS011;49010;51.230;-2.306;2023-02-05T12:33:53;10.52;;;2.97;;
62915;SDS011;49010;51.230;-2.306;2023-02-05T12:38:08;10.85;;;2.60;;
62915;SDS011;49010;51.230;-2.306;2023-02-05T12:46:16;7.80;;;2.40;;
62915;SDS011;49010;51.230;-2.306;2023-02-05T12:58:39;5.93;;;2.10;;
62915;SDS011;49010;51.230;-2.306;2023-02-05T13:06:20;11.40;;;2.40;;
62915;SDS011;49010;51.230;-2.306;2023-02-05T13:10:30;7.22;;;2.28;;
62915;SDS011;49010;51.230;-2.306;2023-02-05T13:14:20;5.80;;;1.73;;
62915;SDS011;49010;51.230;-2.306;2023-02-05T13:22:06;6.65;;;2.03;;
62915;SDS011;49010;51.230;-2.306;2023-02-05T13:26:13;7.35;;;2.20;;
62915;SDS011;49010;51.230;-2.306;2023-02-05T13:30:27;9.93;;;2.25;;
62915;SDS011;49010;51.230;-2.306;2023-02-05T13:34:22;7.90;;;2.25;;
62915;SDS011;49010;51.230;-2.306;2023-02-05T14:01:51;9.63;;;2.22;;
62915;SDS011;49010;51.230;-2.306;2023-02-05T14:05:38;6.35;;;2.20;;
62915;SDS011;49010;51.230;-2.306;2023-02-05T14:09:41;4.55;;;1.83;;
62915;SDS011;49010;51.230;-2.306;2023-02-05T14:25:57;10.30;;;2.70;;
62915;SDS011;49010;51.230;-2.306;2023-02-05T14:33:33;12.02;;;2.92;;
62915;SDS011;49010;51.230;-2.306;2023-02-05T14:37:23;10.65;;;2.65;;
62915;SDS011;49010;51.230;-2.306;2023-02-05T14:44:56;10.00;;;2.85;;
62915;SDS011;49010;51.230;-2.306;2023-02-05T14:48:41;12.02;;;3.15;;
62915;SDS011;49010;51.230;-2.306;2023-02-05T14:52:38;8.93;;;2.53;;
62915;SDS011;49010;51.230;-2.306;2023-02-05T14:56:27;6.43;;;1.92;;
62915;SDS011;49010;51.230;-2.306;2023-02-05T15:04:17;7.78;;;2.22;;
62915;SDS011;49010;51.230;-2.306;2023-02-05T15:19:53;7.80;;;2.65;;
62915;SDS011;49010;51.230;-2.306;2023-02-05T15:23:39;7.80;;;2.95;;
62915;SDS011;49010;51.230;-2.306;2023-02-05T15:27:36;9.60;;;2.88;;
62915;SDS011;49010;51.230;-2.306;2023-02-05T15:31:25;8.80;;;2.08;;
62915;SDS011;49010;51.230;-2.306;2023-02-05T15:35:15;6.03;;;2.35;;
62915;SDS011;49010;51.230;-2.306;2023-02-05T15:39:03;6.60;;;2.03;;
62915;SDS011;49010;51.230;-2.306;2023-02-05T15:42:50;6.85;;;1.92;;
62915;SDS011;49010;51.230;-2.306;2023-02-05T15:46:38;7.60;;;2.30;;
62915;SDS011;49010;51.230;-2.306;2023-02-05T15:50:20;11.05;;;3.05;;
62915;SDS011;49010;51.230;-2.306;2023-02-05T15:54:05;6.47;;;2.58;;
62915;SDS011;49010;51.230;-2.306;2023-02-05T15:57:58;6.72;;;3.03;;
62915;SDS011;49010;51.230;-2.306;2023-02-05T16:01:49;7.72;;;2.28;;
62915;SDS011;49010;51.230;-2.306;2023-02-05T16:05:51;10.50;;;3.38;;
62915;SDS011;49010;51.230;-2.306;2023-02-05T16:09:33;9.13;;;3.08;;
62915;SDS011;49010;51.230;-2.306;2023-02-05T16:13:16;8.00;;;2.60;;
62915;SDS011;49010;51.230;-2.306;2023-02-05T16:17:32;7.45;;;2.17;;
62915;SDS011;49010;51.230;-2.306;2023-02-05T16:24:59;11.95;;;3.15;;
62915;SDS011;49010;51.230;-2.306;2023-02-05T16:32:41;13.48;;;3.15;;
62915;SDS011;49010;51.230;-2.306;2023-02-05T16:36:23;8.60;;;2.88;;
62915;SDS011;49010;51.230;-2.306;2023-02-05T16:40:09;10.25;;;2.95;;
62915;SDS011;49010;51.230;-2.306;2023-02-05T16:43:52;14.15;;;2.50;;
62915;SDS011;49010;51.230;-2.306;2023-02-05T16:47:36;8.55;;;3.63;;
62915;SDS011;49010;51.230;-2.306;2023-02-05T16:59:05;17.95;;;4.85;;
62915;SDS011;49010;51.230;-2.306;2023-02-05T17:02:54;14.15;;;4.47;;
62915;SDS011;49010;51.230;-2.306;2023-02-05T17:06:39;13.07;;;5.13;;
62915;SDS011;49010;51.230;-2.306;2023-02-05T17:10:21;17.08;;;5.07;;
62915;SDS011;49010;51.230;-2.306;2023-02-05T17:18:27;13.02;;;5.30;;
62915;SDS011;49010;51.230;-2.306;2023-02-05T17:25:56;15.43;;;6.13;;
62915;SDS011;49010;51.230;-2.306;2023-02-05T17:29:38;21.10;;;6.40;;
62915;SDS011;49010;51.230;-2.306;2023-02-05T17:33:21;16.23;;;7.05;;
62915;SDS011;49010;51.230;-2.306;2023-02-05T17:37:04;10.52;;;5.40;;
62915;SDS011;49010;51.230;-2.306;2023-02-05T17:40:46;18.52;;;6.28;;
62915;SDS011;49010;51.230;-2.306;2023-02-05T17:44:28;15.05;;;6.75;;
62915;SDS011;49010;51.230;-2.306;2023-02-05T17:48:11;14.32;;;5.80;;
62915;SDS011;49010;51.230;-2.306;2023-02-05T17:51:53;16.10;;;6.35;;
62915;SDS011;49010;51.230;-2.306;2023-02-05T17:55:35;21.40;;;9.05;;
62915;SDS011;49010;51.230;-2.306;2023-02-05T17:59:18;19.23;;;9.50;;
62915;SDS011;49010;51.230;-2.306;2023-02-05T18:03:02;27.02;;;8.90;;
62915;SDS011;49010;51.230;-2.306;2023-02-05T18:06:44;18.83;;;9.63;;
62915;SDS011;49010;51.230;-2.306;2023-02-05T18:10:29;23.33;;;9.38;;
62915;SDS011;49010;51.230;-2.306;2023-02-05T18:14:12;22.52;;;8.45;;
62915;SDS011;49010;51.230;-2.306;2023-02-05T18:17:54;23.98;;;7.55;;
62915;SDS011;49010;51.230;-2.306;2023-02-05T18:21:36;16.60;;;6.70;;
62915;SDS011;49010;51.230;-2.306;2023-02-05T18:25:17;16.52;;;7.93;;
62915;SDS011;49010;51.230;-2.306;2023-02-05T18:28:59;19.75;;;8.93;;
62915;SDS011;49010;51.230;-2.306;2023-02-05T18:32:41;23.77;;;10.30;;
62915;SDS011;49010;51.230;-2.306;2023-02-05T18:36:23;14.02;;;5.57;;
62915;SDS011;49010;51.230;-2.306;2023-02-05T18:40:05;13.63;;;6.75;;
62915;SDS011;49010;51.230;-2.306;2023-02-05T18:43:47;11.70;;;5.07;;
62915;SDS011;49010;51.230;-2.306;2023-02-05T18:47:32;12.98;;;4.25;;
62915;SDS011;49010;51.230;-2.306;2023-02-05T18:51:15;14.32;;;5.38;;
62915;SDS011;49010;51.230;-2.306;2023-02-05T18:54:59;14.23;;;5.30;;
62915;SDS011;49010;51.230;-2.306;2023-02-05T18:58:41;12.93;;;5.50;;
62915;SDS011;49010;51.230;-2.306;2023-02-05T19:02:24;10.18;;;5.05;;
62915;SDS011;49010;51.230;-2.306;2023-02-05T19:06:07;12.63;;;5.00;;
62915;SDS011;49010;51.230;-2.306;2023-02-05T19:09:50;20.52;;;7.10;;
62915;SDS011;49010;51.230;-2.306;2023-02-05T19:13:32;19.73;;;7.32;;
62915;SDS011;49010;51.230;-2.306;2023-02-05T19:17:15;22.73;;;8.43;;
62915;SDS011;49010;51.230;-2.306;2023-02-05T19:21:02;13.25;;;7.07;;
62915;SDS011;49010;51.230;-2.306;2023-02-05T19:24:45;23.83;;;8.63;;
62915;SDS011;49010;51.230;-2.306;2023-02-05T19:28:26;26.92;;;11.32;;
62915;SDS011;49010;51.230;-2.306;2023-02-05T19:32:08;35.22;;;13.45;;
62915;SDS011;49010;51.230;-2.306;2023-02-05T19:35:51;30.80;;;13.40;;
62915;SDS011;49010;51.230;-2.306;2023-02-05T19:39:32;21.10;;;7.80;;
62915;SDS011;49010;51.230;-2.306;2023-02-05T19:43:14;18.08;;;7.40;;
62915;SDS011;49010;51.230;-2.306;2023-02-05T19:46:58;19.95;;;7.25;;
62915;SDS011;49010;51.230;-2.306;2023-02-05T19:50:40;15.40;;;7.13;;
62915;SDS011;49010;51.230;-2.306;2023-02-05T19:54:23;15.77;;;7.70;;
62915;SDS011;49010;51.230;-2.306;2023-02-05T19:58:04;16.38;;;7.35;;
62915;SDS011;49010;51.230;-2.306;2023-02-05T20:01:46;19.92;;;7.85;;
62915;SDS011;49010;51.230;-2.306;2023-02-05T20:05:30;17.30;;;6.82;;
62915;SDS011;49010;51.230;-2.306;2023-02-05T20:09:13;15.40;;;6.85;;
62915;SDS011;49010;51.230;-2.306;2023-02-05T20:12:56;16.17;;;6.90;;
62915;SDS011;49010;51.230;-2.306;2023-02-05T20:16:40;17.08;;;6.35;;
62915;SDS011;49010;51.230;-2.306;2023-02-05T20:20:25;23.63;;;8.95;;
62915;SDS011;49010;51.230;-2.306;2023-02-05T20:24:14;21.10;;;9.85;;
62915;SDS011;49010;51.230;-2.306;2023-02-05T20:27:57;18.42;;;8.10;;
62915;SDS011;49010;51.230;-2.306;2023-02-05T20:31:41;21.15;;;9.57;;
62915;SDS011;49010;51.230;-2.306;2023-02-05T20:35:25;19.45;;;10.32;;
62915;SDS011;49010;51.230;-2.306;2023-02-05T20:39:28;17.25;;;9.63;;
62915;SDS011;49010;51.230;-2.306;2023-02-05T20:43:10;18.85;;;8.73;;
62915;SDS011;49010;51.230;-2.306;2023-02-05T20:46:52;23.90;;;10.27;;
62915;SDS011;49010;51.230;-2.306;2023-02-05T20:50:34;18.92;;;9.35;;
62915;SDS011;49010;51.230;-2.306;2023-02-05T20:54:17;19.20;;;10.38;;
62915;SDS011;49010;51.230;-2.306;2023-02-05T20:57:59;25.88;;;11.57;;
62915;SDS011;49010;51.230;-2.306;2023-02-05T21:01:41;20.52;;;10.65;;
62915;SDS011;49010;51.230;-2.306;2023-02-05T21:05:22;21.73;;;10.48;;
62915;SDS011;49010;51.230;-2.306;2023-02-05T21:09:05;15.80;;;9.27;;
62915;SDS011;49010;51.230;-2.306;2023-02-05T21:12:47;26.08;;;10.48;;
62915;SDS011;49010;51.230;-2.306;2023-02-05T21:16:29;20.00;;;10.75;;
62915;SDS011;49010;51.230;-2.306;2023-02-05T21:20:13;20.67;;;10.95;;
62915;SDS011;49010;51.230;-2.306;2023-02-05T21:23:59;21.85;;;11.75;;
62915;SDS011;49010;51.230;-2.306;2023-02-05T21:27:43;19.80;;;10.93;;
62915;SDS011;49010;51.230;-2.306;2023-02-05T21:31:26;24.58;;;11.52;;
62915;SDS011;49010;51.230;-2.306;2023-02-05T21:35:15;26.27;;;12.40;;
62915;SDS011;49010;51.230;-2.306;2023-02-05T21:38:57;28.35;;;11.00;;
62915;SDS011;49010;51.230;-2.306;2023-02-05T21:42:39;15.27;;;9.10;;
62915;SDS011;49010;51.230;-2.306;2023-02-05T21:46:21;16.92;;;8.50;;
62915;SDS011;49010;51.230;-2.306;2023-02-05T21:50:04;16.73;;;8.65;;
62915;SDS011;49010;51.230;-2.306;2023-02-05T21:53:46;16.48;;;9.25;;
62915;SDS011;49010;51.230;-2.306;2023-02-05T21:57:31;17.23;;;9.60;;
62915;SDS011;49010;51.230;-2.306;2023-02-05T22:01:17;21.48;;;10.90;;
62915;SDS011;49010;51.230;-2.306;2023-02-05T22:05:01;24.58;;;10.90;;
62915;SDS011;49010;51.230;-2.306;2023-02-05T22:08:43;23.23;;;11.55;;
62915;SDS011;49010;51.230;-2.306;2023-02-05T22:12:28;20.23;;;10.00;;
62915;SDS011;49010;51.230;-2.306;2023-02-05T22:16:11;22.83;;;10.02;;
62915;SDS011;49010;51.230;-2.306;2023-02-05T22:19:55;19.00;;;9.50;;
62915;SDS011;49010;51.230;-2.306;2023-02-05T22:23:37;24.27;;;10.55;;
62915;SDS011;49010;51.230;-2.306;2023-02-05T22:27:20;24.05;;;10.02;;
62915;SDS011;49010;51.230;-2.306;2023-02-05T22:31:03;19.38;;;9.75;;
62915;SDS011;49010;51.230;-2.306;2023-02-05T22:34:47;18.85;;;9.13;;
62915;SDS011;49010;51.230;-2.306;2023-02-05T22:38:29;21.25;;;9.98;;
62915;SDS011;49010;51.230;-2.306;2023-02-05T22:42:11;23.88;;;10.77;;
62915;SDS011;49010;51.230;-2.306;2023-02-05T22:45:53;21.73;;;11.05;;
62915;SDS011;49010;51.230;-2.306;2023-02-05T22:49:35;15.95;;;8.70;;
62915;SDS011;49010;51.230;-2.306;2023-02-05T22:53:17;24.55;;;10.48;;
62915;SDS011;49010;51.230;-2.306;2023-02-05T22:56:59;27.77;;;11.30;;
62915;SDS011;49010;51.230;-2.306;2023-02-05T23:00:41;19.20;;;10.25;;
62915;SDS011;49010;51.230;-2.306;2023-02-05T23:04:23;18.10;;;9.65;;
62915;SDS011;49010;51.230;-2.306;2023-02-05T23:08:04;20.65;;;8.88;;
62915;SDS011;49010;51.230;-2.306;2023-02-05T23:11:46;22.88;;;9.90;;
62915;SDS011;49010;51.230;-2.306;2023-02-05T23:15:28;18.25;;;8.60;;
62915;SDS011;49010;51.230;-2.306;2023-02-05T23:19:15;26.85;;;9.68;;
62915;SDS011;49010;51.230;-2.306;2023-02-05T23:22:59;16.65;;;8.57;;
62915;SDS011;49010;51.230;-2.306;2023-02-05T23:26:42;17.85;;;8.13;;
62915;SDS011;49010;51.230;-2.306;2023-02-05T23:30:25;19.25;;;8.30;;
62915;SDS011;49010;51.230;-2.306;2023-02-05T23:34:07;19.45;;;9.32;;
62915;SDS011;49010;51.230;-2.306;2023-02-05T23:37:50;22.70;;;8.32;;
62915;SDS011;49010;51.230;-2.306;2023-02-05T23:41:32;11.98;;;7.38;;
62915;SDS011;49010;51.230;-2.306;2023-02-05T23:45:17;15.15;;;7.65;;
62915;SDS011;49010;51.230;-2.306;2023-02-05T23:48:59;12.45;;;6.50;;
62915;SDS011;49010;51.230;-2.306;2023-02-05T23:52:40;15.23;;;8.23;;
62915;SDS011;49010;51.230;-2.306;2023-02-05T23:56:22;14.43;;;7.55;;
